Argenta, Illinois
Current Conditions -  °F | °C
As of 8:02 PM on Monday 24 Nov 2014 (Local Time) from KDEC Reporting Station
Overcast Overcast  
Wind Chill: 25°   Ceiling: 3000
Heat Index: 35°   Visibility: 10mi
Dew Point: 25°   Wind: 17mph
Humidity: 67%   Direction: 260°W
Pressure: 29.88"   Gusts: 23mph
Location:  39.98°N, 88.82°W
Report Text: KDEC 250202Z 26015G20KT 10SM SCT025 BKN030 OVC034 02/M04 A2988 RMK AO2 T00171039
Loading
Personal Weather Stations






























Interactive Weather Map New forecast layout! Learn more

10-Day Weather Forecast

Advertisements
Track Severe Weather on mobile